createdAt,value
2023-03-19T00:01:45.299Z,15.20
2023-03-19T00:03:48.298Z,15.20
2023-03-19T00:05:51.731Z,15.20
2023-03-19T00:07:53.454Z,15.30
2023-03-19T00:09:55.060Z,15.20
2023-03-19T00:11:56.741Z,15.20
2023-03-19T00:13:58.354Z,15.20
2023-03-19T00:15:59.957Z,15.20
2023-03-19T00:18:01.660Z,15.20
2023-03-19T00:20:03.463Z,15.20
2023-03-19T00:22:05.165Z,15.20
2023-03-19T00:24:06.970Z,15.20
2023-03-19T00:26:08.834Z,15.20
2023-03-19T00:28:12.042Z,15.20
2023-03-19T00:30:15.007Z,15.20
2023-03-19T00:32:16.880Z,15.20
2023-03-19T00:34:19.446Z,15.20
2023-03-19T00:36:21.598Z,15.20
2023-03-19T00:38:23.257Z,15.20
2023-03-19T00:40:25.248Z,15.20
2023-03-19T00:42:27.035Z,15.30
2023-03-19T00:44:28.714Z,15.20
2023-03-19T00:46:30.389Z,15.20
2023-03-19T00:48:32.271Z,15.20
2023-03-19T00:50:33.929Z,15.20
2023-03-19T00:52:35.579Z,15.20
2023-03-19T00:54:37.200Z,15.20
2023-03-19T00:56:39.015Z,15.20
2023-03-19T00:58:41.233Z,15.20
2023-03-19T01:00:43.021Z,15.10
2023-03-19T01:02:44.747Z,15.10
2023-03-19T01:04:48.462Z,15.20
2023-03-19T01:06:50.368Z,15.10
2023-03-19T01:08:52.011Z,15.10
2023-03-19T01:10:53.715Z,15.10
2023-03-19T01:12:55.481Z,15.10
2023-03-19T01:14:57.233Z,15.10
2023-03-19T01:16:58.947Z,15.10
2023-03-19T01:19:01.331Z,15.10
2023-03-19T01:21:03.696Z,15.10
2023-03-19T01:23:07.131Z,15.10
2023-03-19T01:25:10.013Z,15.10
2023-03-19T01:27:12.733Z,15.10
2023-03-19T01:29:14.451Z,15.10
2023-03-19T01:31:16.447Z,15.00
2023-03-19T01:33:41.318Z,15.00
2023-03-19T01:35:51.812Z,15.00
2023-03-19T01:37:56.269Z,15.00
2023-03-19T01:39:58.567Z,15.00
2023-03-19T01:42:03.805Z,15.00
2023-03-19T01:44:27.846Z,15.00
2023-03-19T01:46:49.594Z,15.00
2023-03-19T01:49:11.508Z,15.00
2023-03-19T01:51:15.317Z,14.90
2023-03-19T01:53:21.172Z,14.90
2023-03-19T01:58:08.275Z,14.90
2023-03-19T02:00:29.140Z,14.90
2023-03-19T02:02:32.978Z,14.90
2023-03-19T02:04:40.859Z,14.90
2023-03-19T02:06:43.929Z,15.00
2023-03-19T02:08:46.596Z,14.90
2023-03-19T02:10:49.140Z,14.90
2023-03-19T02:12:50.887Z,14.90
2023-03-19T02:14:53.145Z,14.90
2023-03-19T02:16:54.975Z,14.90
2023-03-19T02:18:57.581Z,14.80
2023-03-19T02:21:01.887Z,14.80
2023-03-19T02:23:08.410Z,14.80
2023-03-19T02:25:17.211Z,14.80
2023-03-19T02:27:21.182Z,14.80
2023-03-19T02:29:24.900Z,14.80
2023-03-19T02:31:27.923Z,14.80
2023-03-19T02:33:29.835Z,14.80
2023-03-19T02:35:32.975Z,14.80
2023-03-19T02:37:34.810Z,14.70
2023-03-19T02:39:57.916Z,14.70
2023-03-19T02:42:00.838Z,14.70
2023-03-19T02:44:05.680Z,14.70
2023-03-19T02:46:09.545Z,14.70
2023-03-19T02:48:11.234Z,14.60
2023-03-19T02:50:12.910Z,14.60
2023-03-19T02:52:14.565Z,14.60
2023-03-19T02:54:16.175Z,14.60
2023-03-19T02:56:18.086Z,14.60
2023-03-19T02:58:20.173Z,14.60
2023-03-19T03:00:21.930Z,14.60
2023-03-19T03:02:23.655Z,14.60
2023-03-19T03:04:26.695Z,14.60
2023-03-19T03:06:28.337Z,14.60
2023-03-19T03:08:29.939Z,14.60
2023-03-19T03:10:32.316Z,14.60
2023-03-19T03:12:34.095Z,14.60
2023-03-19T03:14:35.950Z,14.60
2023-03-19T03:16:38.042Z,14.60
2023-03-19T03:18:39.772Z,14.60
2023-03-19T03:20:41.861Z,14.60
2023-03-19T03:22:44.094Z,14.60
2023-03-19T03:24:45.800Z,14.60
2023-03-19T03:26:47.481Z,14.60
2023-03-19T03:28:50.263Z,14.60
2023-03-19T03:30:57.849Z,14.60
2023-03-19T03:32:59.595Z,14.60
2023-03-19T03:35:01.388Z,14.60
2023-03-19T03:37:03.044Z,14.60
2023-03-19T03:39:04.894Z,14.60
2023-03-19T03:41:06.725Z,14.60
2023-03-19T03:43:09.088Z,14.60
2023-03-19T03:45:11.151Z,14.60
2023-03-19T03:47:14.189Z,14.60
2023-03-19T03:49:15.879Z,14.60
2023-03-19T03:51:18.758Z,14.60
2023-03-19T03:53:20.509Z,14.60
2023-03-19T03:55:22.183Z,14.60
2023-03-19T03:57:24.169Z,14.60
2023-03-19T03:59:26.166Z,14.60
2023-03-19T04:01:28.003Z,14.60
2023-03-19T04:03:31.426Z,14.60
2023-03-19T04:05:33.104Z,14.60
2023-03-19T04:07:35.071Z,14.60
2023-03-19T04:09:40.547Z,14.60
2023-03-19T04:11:42.926Z,14.60
2023-03-19T04:13:44.541Z,14.60
2023-03-19T04:15:46.583Z,14.60
2023-03-19T04:17:48.836Z,14.60
2023-03-19T04:19:51.958Z,14.60
2023-03-19T04:21:53.628Z,14.60
2023-03-19T04:23:55.356Z,14.60
2023-03-19T04:26:01.674Z,14.60
2023-03-19T04:28:03.782Z,14.60
2023-03-19T04:30:05.843Z,14.60
2023-03-19T04:32:07.660Z,14.50
2023-03-19T04:34:09.363Z,14.60
2023-03-19T04:36:11.051Z,14.50
2023-03-19T04:38:13.008Z,14.50
2023-03-19T04:40:15.828Z,14.50
2023-03-19T04:42:18.063Z,14.50
2023-03-19T04:44:25.676Z,14.50
2023-03-19T04:46:28.240Z,14.50
2023-03-19T04:48:29.953Z,14.50
2023-03-19T04:50:32.054Z,14.50
2023-03-19T04:52:34.818Z,14.50
2023-03-19T04:54:38.043Z,14.50
2023-03-19T04:56:39.827Z,14.50
2023-03-19T04:58:42.516Z,14.50
2023-03-19T05:00:46.879Z,14.50
2023-03-19T05:02:53.256Z,14.50
2023-03-19T05:04:54.937Z,14.50
2023-03-19T05:06:57.368Z,14.40
2023-03-19T05:08:59.449Z,14.50
2023-03-19T05:11:01.507Z,14.50
2023-03-19T05:13:09.025Z,14.50
2023-03-19T05:15:16.472Z,14.40
2023-03-19T05:17:27.736Z,14.40
2023-03-19T05:19:48.539Z,14.40
2023-03-19T05:21:51.008Z,14.40
2023-03-19T05:23:57.622Z,14.40
2023-03-19T05:26:02.840Z,14.40
2023-03-19T05:28:22.933Z,14.40
2023-03-19T05:30:24.665Z,14.40
2023-03-19T05:32:40.582Z,14.40
2023-03-19T05:34:48.381Z,14.30
2023-03-19T05:36:50.627Z,14.30
2023-03-19T05:38:53.699Z,14.40
2023-03-19T05:41:05.974Z,14.30
2023-03-19T05:43:18.962Z,14.30
2023-03-19T05:45:20.830Z,14.30
2023-03-19T05:47:27.086Z,14.30
2023-03-19T05:49:31.307Z,14.40
2023-03-19T05:51:32.960Z,14.30
2023-03-19T05:53:35.119Z,14.30
2023-03-19T05:55:59.232Z,14.30
2023-03-19T05:58:02.015Z,14.30
2023-03-19T06:00:06.573Z,14.30
2023-03-19T06:02:08.319Z,14.30
2023-03-19T06:04:10.412Z,14.30
2023-03-19T06:06:12.329Z,14.30
2023-03-19T06:08:18.192Z,14.30
2023-03-19T06:10:37.410Z,14.30
2023-03-19T06:12:44.110Z,14.30
2023-03-19T06:14:57.234Z,14.40
2023-03-19T06:17:18.147Z,14.30
2023-03-19T06:19:21.937Z,14.40
2023-03-19T06:21:25.839Z,14.40
2023-03-19T06:23:27.465Z,14.40
2023-03-19T06:25:29.238Z,14.40
2023-03-19T06:27:30.981Z,14.40
2023-03-19T06:29:44.152Z,14.40
2023-03-19T06:31:58.270Z,14.40
2023-03-19T06:34:12.185Z,14.40
2023-03-19T06:36:16.815Z,14.40
2023-03-19T06:38:18.668Z,14.50
2023-03-19T06:40:20.318Z,14.40
2023-03-19T06:42:22.561Z,14.50
2023-03-19T06:44:25.374Z,14.50
2023-03-19T06:46:27.017Z,14.50
2023-03-19T06:48:28.624Z,14.50
2023-03-19T06:50:30.463Z,14.50
2023-03-19T06:52:32.087Z,14.50
2023-03-19T06:54:33.764Z,14.50
2023-03-19T06:56:35.606Z,14.60
2023-03-19T06:58:37.216Z,14.50
2023-03-19T07:00:38.917Z,14.60
2023-03-19T07:02:40.876Z,14.60
2023-03-19T07:04:42.542Z,14.60
2023-03-19T07:06:44.370Z,14.60
2023-03-19T07:08:46.285Z,14.60
2023-03-19T07:10:48.063Z,14.60
2023-03-19T07:12:49.731Z,14.60
2023-03-19T07:14:51.425Z,14.60
2023-03-19T07:16:53.240Z,14.60
2023-03-19T07:18:56.136Z,14.70
2023-03-19T07:20:57.872Z,14.70
2023-03-19T07:22:59.516Z,14.70
2023-03-19T07:25:01.190Z,14.70
2023-03-19T07:27:03.032Z,14.70
2023-03-19T07:29:04.681Z,14.70
2023-03-19T07:31:06.977Z,14.80
2023-03-19T07:33:09.024Z,14.80
2023-03-19T07:35:11.062Z,14.80
2023-03-19T07:37:12.745Z,14.80
2023-03-19T07:39:14.494Z,14.80
2023-03-19T07:41:17.093Z,14.90
2023-03-19T07:43:18.717Z,14.90
2023-03-19T07:45:20.550Z,14.90
2023-03-19T07:47:28.828Z,15.00
2023-03-19T07:49:31.266Z,15.00
2023-03-19T07:51:33.173Z,15.00
2023-03-19T07:53:37.700Z,15.00
2023-03-19T07:55:39.319Z,15.00
2023-03-19T07:57:41.077Z,15.10
2023-03-19T07:59:42.721Z,15.10
2023-03-19T08:01:44.414Z,15.10
2023-03-19T08:03:48.323Z,15.10
2023-03-19T08:05:50.105Z,15.20
2023-03-19T08:07:51.873Z,15.20
2023-03-19T08:09:53.561Z,15.20
2023-03-19T08:11:55.207Z,15.30
2023-03-19T08:13:59.704Z,15.20
2023-03-19T08:16:01.495Z,15.30
2023-03-19T08:18:04.133Z,15.30
2023-03-19T08:20:10.778Z,15.30
2023-03-19T08:22:12.706Z,15.30
2023-03-19T08:24:14.373Z,15.30
2023-03-19T08:26:16.123Z,15.40
2023-03-19T08:28:17.794Z,15.40
2023-03-19T08:30:19.477Z,15.40
2023-03-19T08:32:21.194Z,15.40
2023-03-19T08:34:22.991Z,15.40
2023-03-19T08:36:24.611Z,15.50
2023-03-19T08:38:26.240Z,15.40
2023-03-19T08:40:28.037Z,15.50
2023-03-19T08:42:30.219Z,15.50
2023-03-19T08:44:31.887Z,15.50
2023-03-19T08:46:33.825Z,15.60
2023-03-19T08:48:35.616Z,15.50
2023-03-19T08:50:37.310Z,15.60
2023-03-19T08:52:39.257Z,15.60
2023-03-19T08:54:40.917Z,15.60
2023-03-19T08:56:42.600Z,15.70
2023-03-19T08:58:45.479Z,15.70
2023-03-19T09:00:47.399Z,15.70
2023-03-19T09:02:49.109Z,15.80
2023-03-19T09:04:50.927Z,15.80
2023-03-19T09:06:52.730Z,15.80
2023-03-19T09:08:54.360Z,15.90
2023-03-19T09:10:56.041Z,15.90
2023-03-19T09:12:58.428Z,16.00
2023-03-19T09:15:00.056Z,16.00
2023-03-19T09:17:01.851Z,16.00
2023-03-19T09:19:04.001Z,16.00
2023-03-19T09:21:05.941Z,16.10
2023-03-19T09:23:07.741Z,16.10
2023-03-19T09:25:09.829Z,16.20
2023-03-19T09:27:11.581Z,16.20
2023-03-19T09:29:13.956Z,16.20
2023-03-19T09:31:15.662Z,16.20
2023-03-19T09:33:18.049Z,16.20
2023-03-19T09:35:19.772Z,16.30
2023-03-19T09:37:21.425Z,16.40
2023-03-19T09:39:23.155Z,16.40
2023-03-19T09:41:28.433Z,16.40
2023-03-19T09:43:36.051Z,16.50
2023-03-19T09:45:37.764Z,16.50
2023-03-19T09:47:39.785Z,16.60
2023-03-19T09:49:43.428Z,16.60
2023-03-19T09:51:48.862Z,16.60
2023-03-19T09:53:50.733Z,16.70
2023-03-19T09:55:54.163Z,16.70
2023-03-19T09:57:57.148Z,16.80
2023-03-19T09:59:58.782Z,16.80
2023-03-19T10:02:09.616Z,16.90
2023-03-19T10:04:26.559Z,16.90
2023-03-19T10:06:35.514Z,17.00
2023-03-19T10:08:39.318Z,17.10
2023-03-19T10:10:50.324Z,17.10
2023-03-19T10:12:59.629Z,17.20
2023-03-19T10:15:20.047Z,17.30
2023-03-19T10:17:30.513Z,17.40
2023-03-19T10:19:40.656Z,17.40
2023-03-19T10:21:53.624Z,17.50
2023-03-19T10:23:59.412Z,17.60
2023-03-19T10:26:02.987Z,17.60
2023-03-19T10:28:14.139Z,17.70
2023-03-19T10:30:16.895Z,17.70
2023-03-19T10:32:29.645Z,17.80
2023-03-19T10:34:57.905Z,17.80
2023-03-19T10:37:07.953Z,17.80
2023-03-19T10:39:09.706Z,17.90
2023-03-19T10:41:18.935Z,17.90
2023-03-19T10:43:25.527Z,17.90
2023-03-19T10:45:31.585Z,17.90
2023-03-19T10:47:38.013Z,17.90
2023-03-19T10:49:40.092Z,17.90
2023-03-19T10:51:48.234Z,18.00
2023-03-19T10:53:52.221Z,18.00
2023-03-19T10:55:55.762Z,18.00
2023-03-19T10:58:03.229Z,18.10
2023-03-19T11:00:15.521Z,18.20
2023-03-19T11:02:22.578Z,18.20
2023-03-19T11:04:26.423Z,18.30
2023-03-19T11:06:38.419Z,18.40
2023-03-19T11:08:40.655Z,18.50
2023-03-19T11:10:47.003Z,18.60
2023-03-19T11:12:52.731Z,18.70
2023-03-19T11:14:56.529Z,18.80
2023-03-19T11:17:07.511Z,18.80
2023-03-19T11:19:17.051Z,18.90
2023-03-19T11:21:23.893Z,18.90
2023-03-19T11:23:29.927Z,19.00
2023-03-19T11:25:31.815Z,19.10
2023-03-19T11:27:35.426Z,19.10
2023-03-19T11:29:40.515Z,19.20
2023-03-19T11:31:48.983Z,19.30
2023-03-19T11:33:50.694Z,19.30
2023-03-19T11:36:04.840Z,19.40
2023-03-19T11:38:13.388Z,19.50
2023-03-19T11:40:27.786Z,19.50
2023-03-19T11:42:42.692Z,19.50
2023-03-19T11:44:59.728Z,19.60
2023-03-19T11:47:06.848Z,19.50
2023-03-19T11:49:30.520Z,19.50
2023-03-19T11:51:46.662Z,19.50
2023-03-19T11:53:48.330Z,19.50
2023-03-19T11:56:08.082Z,19.50
2023-03-19T11:58:28.660Z,19.50
2023-03-19T12:00:35.456Z,19.50
2023-03-19T12:02:50.076Z,19.50
2023-03-19T12:05:04.352Z,19.50
2023-03-19T12:07:09.163Z,19.50
2023-03-19T12:09:21.215Z,19.40
2023-03-19T12:11:36.773Z,19.40
2023-03-19T12:13:47.689Z,19.40
2023-03-19T12:15:58.464Z,19.30
2023-03-19T12:18:09.089Z,19.30
2023-03-19T12:20:11.784Z,19.30
2023-03-19T12:22:16.520Z,19.30
2023-03-19T12:24:33.105Z,19.20
2023-03-19T12:26:40.280Z,19.20
2023-03-19T12:28:49.328Z,19.20
2023-03-19T12:31:09.157Z,19.10
2023-03-19T12:33:49.678Z,19.10
2023-03-19T12:35:55.374Z,19.10
2023-03-19T12:38:03.146Z,19.10
2023-03-19T12:40:15.205Z,19.00
2023-03-19T12:42:18.895Z,19.00
2023-03-19T12:44:26.671Z,19.00
2023-03-19T12:46:32.098Z,18.90
2023-03-19T12:48:39.346Z,18.90
2023-03-19T12:50:43.758Z,18.90
2023-03-19T12:52:51.023Z,18.90
2023-03-19T12:55:05.038Z,18.90
2023-03-19T12:57:36.520Z,18.90
2023-03-19T12:59:38.250Z,18.90
2023-03-19T13:01:52.046Z,18.90
2023-03-19T13:03:56.866Z,18.90
2023-03-19T13:06:02.144Z,18.90
2023-03-19T13:08:13.421Z,18.90
2023-03-19T13:10:19.099Z,18.90
2023-03-19T13:12:22.806Z,18.90
2023-03-19T13:14:25.459Z,18.90
2023-03-19T13:16:43.550Z,18.80
2023-03-19T13:18:54.286Z,18.80
2023-03-19T13:20:56.183Z,18.80
2023-03-19T13:23:01.974Z,18.80
2023-03-19T13:25:04.415Z,18.80
2023-03-19T13:27:11.963Z,18.80
2023-03-19T13:29:24.382Z,18.70
2023-03-19T13:31:26.893Z,18.80
2023-03-19T13:33:29.438Z,18.70
2023-03-19T13:35:41.580Z,18.70
2023-03-19T13:37:43.581Z,18.70
2023-03-19T13:39:46.488Z,18.70
2023-03-19T13:41:48.953Z,18.60
2023-03-19T13:43:54.253Z,18.60
2023-03-19T13:46:17.382Z,18.60
2023-03-19T13:48:24.683Z,18.60
2023-03-19T13:50:27.764Z,18.60
2023-03-19T13:52:29.436Z,18.60
2023-03-19T13:54:39.955Z,18.60
2023-03-19T13:57:01.272Z,18.50
2023-03-19T13:59:32.226Z,18.50
2023-03-19T14:01:35.687Z,18.50
2023-03-19T14:03:39.892Z,18.40
2023-03-19T14:05:42.362Z,18.40
2023-03-19T14:07:47.492Z,18.40
2023-03-19T14:10:09.626Z,18.30
2023-03-19T14:12:12.778Z,18.30
2023-03-19T14:14:15.401Z,18.30
2023-03-19T14:16:20.187Z,18.30
2023-03-19T14:18:22.450Z,18.20
2023-03-19T14:20:35.429Z,18.20
2023-03-19T14:22:58.286Z,18.30
2023-03-19T14:25:22.615Z,18.20
2023-03-19T14:27:36.009Z,18.10
2023-03-19T14:29:41.975Z,18.10
2023-03-19T14:31:47.237Z,18.00
2023-03-19T14:33:59.578Z,18.00
2023-03-19T14:36:03.472Z,18.00
2023-03-19T14:38:11.491Z,18.00
2023-03-19T14:40:13.250Z,17.90
2023-03-19T14:42:17.985Z,17.90
2023-03-19T14:44:31.901Z,17.90
2023-03-19T14:46:42.802Z,17.90
2023-03-19T14:48:50.223Z,17.90
2023-03-19T14:51:10.318Z,17.80
2023-03-19T14:53:15.239Z,17.80
2023-03-19T14:55:17.638Z,17.80
2023-03-19T14:57:20.394Z,17.80
2023-03-19T14:59:22.169Z,17.80
2023-03-19T15:01:26.895Z,17.90
2023-03-19T15:03:28.798Z,17.80
2023-03-19T15:05:33.170Z,17.80
2023-03-19T15:07:41.492Z,17.90
2023-03-19T15:09:43.262Z,17.90
2023-03-19T15:11:58.228Z,17.90
2023-03-19T15:14:08.786Z,17.90
2023-03-19T15:16:29.184Z,18.00
2023-03-19T15:18:31.145Z,18.00
2023-03-19T15:20:37.343Z,18.10
2023-03-19T15:22:39.043Z,18.10
2023-03-19T15:24:41.372Z,18.10
2023-03-19T15:26:43.548Z,18.10
2023-03-19T15:28:49.819Z,18.10
2023-03-19T15:31:28.801Z,18.10
2023-03-19T15:33:40.128Z,18.20
2023-03-19T15:35:43.510Z,18.20
2023-03-19T15:37:47.806Z,18.20
2023-03-19T15:39:51.698Z,18.20
2023-03-19T15:41:54.076Z,18.20
2023-03-19T15:43:56.603Z,18.20
2023-03-19T15:45:58.370Z,18.20
2023-03-19T15:48:03.337Z,18.20
2023-03-19T15:50:12.538Z,18.20
2023-03-19T15:52:15.342Z,18.20
2023-03-19T15:54:17.659Z,18.20
2023-03-19T15:56:19.824Z,18.20
2023-03-19T15:58:24.178Z,18.20
2023-03-19T16:00:26.019Z,18.30
2023-03-19T16:02:31.922Z,18.30
2023-03-19T16:04:55.811Z,18.30
2023-03-19T16:06:57.358Z,18.30
2023-03-19T16:09:17.828Z,18.40
2023-03-19T16:11:28.418Z,18.40
2023-03-19T16:13:32.051Z,18.40
2023-03-19T16:15:37.855Z,18.40
2023-03-19T16:17:42.195Z,18.50
2023-03-19T16:19:49.866Z,18.50
2023-03-19T16:21:51.605Z,18.50
2023-03-19T16:23:59.311Z,18.50
2023-03-19T16:26:16.861Z,18.50
2023-03-19T16:28:20.520Z,18.50
2023-03-19T16:30:22.429Z,18.50
2023-03-19T16:32:25.389Z,18.50
2023-03-19T16:34:32.492Z,18.50
2023-03-19T16:36:34.241Z,18.50
2023-03-19T16:38:43.259Z,18.50
2023-03-19T16:40:47.085Z,18.50
2023-03-19T16:42:51.104Z,18.50
2023-03-19T16:44:53.003Z,18.40
2023-03-19T16:46:54.766Z,18.50
2023-03-19T16:48:56.552Z,18.40
2023-03-19T16:50:58.236Z,18.40
2023-03-19T16:53:01.256Z,18.40
2023-03-19T16:55:04.434Z,18.40
2023-03-19T16:57:06.202Z,18.40
2023-03-19T16:59:09.400Z,18.40
2023-03-19T17:01:21.194Z,18.40
2023-03-19T17:03:23.069Z,18.30
2023-03-19T17:05:25.696Z,18.30
2023-03-19T17:07:27.392Z,18.30
2023-03-19T17:09:29.220Z,18.30
2023-03-19T17:11:36.443Z,18.30
2023-03-19T17:13:43.661Z,18.20
2023-03-19T17:15:47.996Z,18.20
2023-03-19T17:17:51.881Z,18.20
2023-03-19T17:19:55.812Z,18.10
2023-03-19T17:21:59.014Z,18.10
2023-03-19T17:24:17.044Z,18.10
2023-03-19T17:26:26.446Z,18.00
2023-03-19T17:28:32.957Z,18.00
2023-03-19T17:30:36.359Z,18.00
2023-03-19T17:32:40.540Z,18.00
2023-03-19T17:34:43.871Z,17.90
2023-03-19T17:36:59.906Z,17.90
2023-03-19T17:39:04.278Z,17.90
2023-03-19T17:41:15.806Z,17.90
2023-03-19T17:43:19.161Z,17.80
2023-03-19T17:45:37.299Z,17.80
2023-03-19T17:47:48.529Z,17.70
2023-03-19T17:49:50.352Z,17.70
2023-03-19T17:51:52.315Z,17.70
2023-03-19T17:53:54.609Z,17.70
2023-03-19T17:55:57.136Z,17.60
2023-03-19T17:57:59.035Z,17.60
2023-03-19T18:00:00.752Z,17.60
2023-03-19T18:02:02.779Z,17.50
2023-03-19T18:04:04.512Z,17.50
2023-03-19T18:06:07.269Z,17.50
2023-03-19T18:08:12.738Z,17.50
2023-03-19T18:10:15.235Z,17.40
2023-03-19T18:12:18.126Z,17.40
2023-03-19T18:14:20.787Z,17.40
2023-03-19T18:16:30.807Z,17.30
2023-03-19T18:18:32.950Z,17.30
2023-03-19T18:20:38.648Z,17.30
2023-03-19T18:22:40.506Z,17.30
2023-03-19T18:24:42.767Z,17.20
2023-03-19T18:26:44.523Z,17.20
2023-03-19T18:28:46.278Z,17.20
2023-03-19T18:30:48.158Z,17.20
2023-03-19T18:32:52.694Z,17.20
2023-03-19T18:34:54.712Z,17.10
2023-03-19T18:36:56.534Z,17.10
2023-03-19T18:38:58.755Z,17.10
2023-03-19T18:41:00.679Z,17.10
2023-03-19T18:43:04.997Z,17.10
2023-03-19T18:45:08.670Z,17.10
2023-03-19T18:47:13.518Z,17.00
2023-03-19T18:49:21.245Z,17.00
2023-03-19T18:51:23.109Z,17.00
2023-03-19T18:53:25.620Z,16.90
2023-03-19T18:55:28.925Z,16.90
2023-03-19T18:57:30.746Z,16.90
2023-03-19T18:59:33.452Z,16.90
2023-03-19T19:01:41.272Z,16.90
2023-03-19T19:03:43.480Z,16.90
2023-03-19T19:05:45.408Z,16.80
2023-03-19T19:07:47.374Z,16.80
2023-03-19T19:09:49.219Z,16.80
2023-03-19T19:11:51.170Z,16.70
2023-03-19T19:13:56.342Z,16.70
2023-03-19T19:15:58.477Z,16.70
2023-03-19T19:18:00.991Z,16.70
2023-03-19T19:20:03.119Z,16.60
2023-03-19T19:22:04.972Z,16.60
2023-03-19T19:24:06.949Z,16.60
2023-03-19T19:26:18.165Z,16.50
2023-03-19T19:28:26.665Z,16.50
2023-03-19T19:30:28.724Z,16.40
2023-03-19T19:32:31.071Z,16.40
2023-03-19T19:34:32.769Z,16.40
2023-03-19T19:36:34.466Z,16.30
2023-03-19T19:38:36.328Z,16.30
2023-03-19T19:40:39.978Z,16.30
2023-03-19T19:42:42.473Z,16.20
2023-03-19T19:44:46.756Z,16.20
2023-03-19T19:46:50.447Z,16.10
2023-03-19T19:48:57.915Z,16.10
2023-03-19T19:50:59.702Z,16.10
2023-03-19T19:53:01.415Z,16.00
2023-03-19T19:55:03.235Z,16.10
2023-03-19T19:57:09.439Z,16.00
2023-03-19T19:59:14.420Z,15.90
2023-03-19T20:01:17.457Z,15.90
2023-03-19T20:03:37.894Z,15.80
2023-03-19T20:05:39.968Z,15.80
2023-03-19T20:07:41.751Z,15.80
2023-03-19T20:09:43.564Z,15.70
2023-03-19T20:11:46.167Z,15.70
2023-03-19T20:13:51.369Z,15.70
2023-03-19T20:15:54.817Z,15.70
2023-03-19T20:17:56.674Z,15.70
2023-03-19T20:19:58.523Z,15.60
2023-03-19T20:22:01.048Z,15.60
2023-03-19T20:24:02.840Z,15.60
2023-03-19T20:26:04.756Z,15.50
2023-03-19T20:28:08.324Z,15.50
2023-03-19T20:30:20.369Z,15.50
2023-03-19T20:32:22.154Z,15.50
2023-03-19T20:34:38.470Z,15.50
2023-03-19T20:36:41.180Z,15.50
2023-03-19T20:38:43.051Z,15.40
2023-03-19T20:40:55.596Z,15.30
2023-03-19T20:42:57.858Z,15.30
2023-03-19T20:44:59.818Z,15.30
2023-03-19T20:47:01.660Z,15.30
2023-03-19T20:49:03.537Z,15.20
2023-03-19T20:51:06.200Z,15.20
2023-03-19T20:53:08.048Z,15.20
2023-03-19T20:55:14.462Z,15.20
2023-03-19T20:57:17.846Z,15.10
2023-03-19T20:59:19.545Z,15.10
2023-03-19T21:01:21.711Z,15.10
2023-03-19T21:03:24.678Z,15.10
2023-03-19T21:05:37.226Z,15.10
2023-03-19T21:07:48.106Z,15.00
2023-03-19T21:09:50.589Z,15.00
2023-03-19T21:11:52.985Z,15.00
2023-03-19T21:13:55.811Z,15.00
2023-03-19T21:15:57.729Z,15.00
2023-03-19T21:17:59.514Z,15.00
2023-03-19T21:20:02.510Z,14.90
2023-03-19T21:22:05.687Z,14.90
2023-03-19T21:24:13.349Z,15.00
2023-03-19T21:26:16.557Z,14.80
2023-03-19T21:28:26.164Z,14.90
2023-03-19T21:30:28.045Z,14.80
2023-03-19T21:32:30.348Z,14.80
2023-03-19T21:34:32.198Z,14.80
2023-03-19T21:36:33.877Z,14.70
2023-03-19T21:38:36.027Z,14.70
2023-03-19T21:40:38.058Z,14.70
2023-03-19T21:42:39.902Z,14.70
2023-03-19T21:44:42.433Z,14.70
2023-03-19T21:46:46.628Z,14.60
2023-03-19T21:48:48.588Z,14.60
2023-03-19T21:50:50.869Z,14.60
2023-03-19T21:52:59.798Z,14.50
2023-03-19T21:55:02.942Z,14.50
2023-03-19T21:57:04.691Z,14.50
2023-03-19T21:59:17.966Z,14.50
2023-03-19T22:01:21.121Z,14.40
2023-03-19T22:03:23.475Z,14.40
2023-03-19T22:05:26.235Z,14.40
2023-03-19T22:07:27.926Z,14.40
2023-03-19T22:09:29.817Z,14.30
2023-03-19T22:11:34.455Z,14.30
2023-03-19T22:13:36.210Z,14.30
2023-03-19T22:15:38.232Z,14.30
2023-03-19T22:17:40.687Z,14.30
2023-03-19T22:19:42.499Z,14.20
2023-03-19T22:21:44.248Z,14.20
2023-03-19T22:23:46.643Z,14.20
2023-03-19T22:25:49.650Z,14.20
2023-03-19T22:27:51.553Z,14.20
2023-03-19T22:29:53.298Z,14.10
2023-03-19T22:31:55.958Z,14.10
2023-03-19T22:33:57.920Z,14.10
2023-03-19T22:35:59.638Z,14.10
2023-03-19T22:38:01.363Z,14.00
2023-03-19T22:40:03.122Z,14.00
2023-03-19T22:42:04.873Z,14.00
2023-03-19T22:44:07.912Z,14.00
2023-03-19T22:46:10.925Z,14.00
2023-03-19T22:48:14.793Z,14.00
2023-03-19T22:50:17.886Z,14.00
2023-03-19T22:52:19.558Z,14.00
2023-03-19T22:54:21.252Z,14.00
2023-03-19T22:56:23.303Z,14.00
2023-03-19T22:58:25.280Z,13.90
2023-03-19T23:00:26.961Z,13.90
2023-03-19T23:02:28.664Z,13.90
2023-03-19T23:04:31.651Z,13.90
2023-03-19T23:06:33.415Z,13.90
2023-03-19T23:08:35.096Z,13.90
2023-03-19T23:10:36.767Z,13.90
2023-03-19T23:12:38.408Z,13.90
2023-03-19T23:14:40.030Z,13.80
2023-03-19T23:16:43.224Z,13.80
2023-03-19T23:18:45.031Z,13.80
2023-03-19T23:20:47.133Z,13.80
2023-03-19T23:22:48.800Z,13.80
2023-03-19T23:24:50.469Z,13.80
2023-03-19T23:26:53.804Z,13.80
2023-03-19T23:28:56.627Z,13.70
2023-03-19T23:30:58.788Z,13.80
2023-03-19T23:33:02.318Z,13.80
2023-03-19T23:35:06.375Z,13.80
2023-03-19T23:37:08.610Z,13.70
2023-03-19T23:39:10.525Z,13.70
2023-03-19T23:41:38.509Z,13.70
2023-03-19T23:43:40.976Z,13.70
2023-03-19T23:45:43.290Z,13.80
2023-03-19T23:47:45.395Z,13.70
2023-03-19T23:49:47.710Z,13.70
2023-03-19T23:51:49.443Z,13.70
2023-03-19T23:53:51.341Z,13.70
2023-03-19T23:55:54.540Z,13.80
2023-03-19T23:57:57.078Z,13.80
2023-03-19T23:59:58.722Z,13.80
